createdAt,value
2023-10-11T00:00:41.506Z,3.30
2023-10-11T00:03:17.879Z,3.40
2023-10-11T00:05:46.922Z,3.10
2023-10-11T00:08:17.158Z,3.00
2023-10-11T00:10:54.834Z,3.00
2023-10-11T00:13:33.977Z,4.05
2023-10-11T00:16:08.380Z,3.25
2023-10-11T00:18:37.192Z,3.20
2023-10-11T00:21:17.555Z,3.00
2023-10-11T00:23:46.839Z,2.80
2023-10-11T00:26:17.752Z,4.13
2023-10-11T00:28:45.059Z,2.95
2023-10-11T00:31:20.298Z,2.80
2023-10-11T00:33:50.862Z,2.80
2023-10-11T00:36:22.285Z,2.85
2023-10-11T00:38:49.966Z,3.00
2023-10-11T00:41:21.962Z,2.80
2023-10-11T00:43:52.201Z,3.00
2023-10-11T00:46:26.335Z,3.10
2023-10-11T00:48:53.119Z,3.03
2023-10-11T00:51:27.257Z,2.83
2023-10-11T00:53:54.205Z,2.87
2023-10-11T00:56:21.899Z,2.72
2023-10-11T00:58:51.657Z,3.03
2023-10-11T01:01:18.752Z,2.47
2023-10-11T01:03:46.710Z,2.85
2023-10-11T01:06:13.654Z,2.88
2023-10-11T01:08:40.964Z,3.08
2023-10-11T01:11:14.652Z,2.78
2023-10-11T01:13:43.529Z,2.47
2023-10-11T01:16:11.486Z,3.05
2023-10-11T01:18:45.108Z,2.75
2023-10-11T01:21:13.909Z,2.33
2023-10-11T01:23:40.535Z,3.63
2023-10-11T01:26:09.105Z,2.40
2023-10-11T01:28:35.970Z,2.88
2023-10-11T01:31:09.805Z,3.33
2023-10-11T01:33:44.445Z,2.80
2023-10-11T01:36:24.202Z,2.90
2023-10-11T01:38:51.081Z,3.25
2023-10-11T01:41:27.975Z,2.30
2023-10-11T01:43:55.965Z,2.63
2023-10-11T01:46:36.353Z,2.80
2023-10-11T01:49:06.785Z,2.78
2023-10-11T01:51:40.363Z,2.97
2023-10-11T01:54:11.289Z,2.92
2023-10-11T01:56:39.395Z,2.50
2023-10-11T01:59:06.324Z,2.40
2023-10-11T02:01:40.906Z,2.38
2023-10-11T02:04:20.221Z,3.08
2023-10-11T02:06:49.432Z,2.80
2023-10-11T02:09:21.257Z,2.88
2023-10-11T02:11:53.262Z,2.78
2023-10-11T02:14:20.934Z,2.60
2023-10-11T02:16:47.398Z,2.55
2023-10-11T02:19:16.778Z,2.47
2023-10-11T02:21:46.291Z,2.80
2023-10-11T02:24:16.060Z,2.70
2023-10-11T02:26:50.572Z,2.60
2023-10-11T02:29:23.306Z,2.38
2023-10-11T02:31:51.493Z,2.20
2023-10-11T02:34:18.239Z,2.40
2023-10-11T02:36:46.534Z,2.67
2023-10-11T02:39:23.410Z,2.25
2023-10-11T02:41:51.686Z,2.95
2023-10-11T02:44:24.100Z,2.50
2023-10-11T02:46:52.258Z,2.53
2023-10-11T02:49:21.860Z,3.20
2023-10-11T02:51:57.454Z,2.40
2023-10-11T02:54:41.806Z,2.60
2023-10-11T02:59:51.418Z,2.90
2023-10-11T03:02:18.038Z,2.20
2023-10-11T03:04:44.631Z,2.42
2023-10-11T03:07:24.622Z,2.83
2023-10-11T03:09:52.259Z,2.35
2023-10-11T03:12:32.093Z,2.53
2023-10-11T03:15:07.146Z,2.58
2023-10-11T03:17:33.632Z,2.40
2023-10-11T03:20:00.124Z,2.10
2023-10-11T03:22:30.032Z,2.50
2023-10-11T03:25:01.805Z,2.45
2023-10-11T03:27:28.748Z,2.50
2023-10-11T03:29:57.288Z,2.50
2023-10-11T03:32:26.697Z,2.55
2023-10-11T03:34:54.524Z,2.75
2023-10-11T03:37:21.047Z,2.03
2023-10-11T03:39:57.307Z,2.45
2023-10-11T03:42:43.189Z,2.35
2023-10-11T03:47:38.912Z,2.15
2023-10-11T03:50:07.591Z,2.47
2023-10-11T03:52:34.208Z,2.47
2023-10-11T03:55:10.696Z,2.22
2023-10-11T03:57:42.663Z,3.08
2023-10-11T04:00:24.757Z,2.55
2023-10-11T04:02:58.983Z,2.58
2023-10-11T04:05:36.826Z,2.55
2023-10-11T04:08:07.491Z,2.33
2023-10-11T04:10:41.241Z,2.42
2023-10-11T04:13:10.627Z,2.22
2023-10-11T04:15:40.372Z,2.42
2023-10-11T04:18:16.509Z,2.00
2023-10-11T04:20:52.578Z,2.13
2023-10-11T04:23:25.558Z,2.40
2023-10-11T04:25:52.189Z,2.25
2023-10-11T04:28:18.707Z,2.05
2023-10-11T04:30:53.050Z,2.65
2023-10-11T04:33:22.229Z,2.60
2023-10-11T04:35:59.099Z,2.17
2023-10-11T04:38:25.659Z,2.38
2023-10-11T04:40:54.665Z,2.20
2023-10-11T04:43:27.313Z,2.53
2023-10-11T04:46:01.134Z,2.33
2023-10-11T04:48:37.862Z,2.17
2023-10-11T04:51:08.052Z,2.38
2023-10-11T04:53:38.566Z,2.42
2023-10-11T04:56:31.332Z,2.30
2023-10-11T04:59:07.061Z,2.20
2023-10-11T05:01:49.694Z,2.00
2023-10-11T05:04:17.899Z,1.80
2023-10-11T05:06:47.050Z,2.30
2023-10-11T05:09:16.167Z,2.35
2023-10-11T05:11:47.423Z,2.22
2023-10-11T05:14:32.895Z,2.10
2023-10-11T05:17:17.700Z,2.17
2023-10-11T05:20:10.142Z,2.63
2023-10-11T05:22:50.564Z,2.47
2023-10-11T05:25:21.014Z,2.17
2023-10-11T05:28:09.087Z,2.53
2023-10-11T05:30:36.235Z,2.08
2023-10-11T05:33:02.940Z,2.38
2023-10-11T05:35:52.519Z,2.13
2023-10-11T05:38:39.090Z,2.20
2023-10-11T05:41:27.606Z,2.10
2023-10-11T05:44:12.338Z,2.00
2023-10-11T05:46:57.101Z,2.20
2023-10-11T05:49:43.893Z,2.60
2023-10-11T05:52:10.448Z,1.98
2023-10-11T05:54:37.010Z,2.25
2023-10-11T05:57:05.247Z,1.95
2023-10-11T05:59:38.820Z,2.10
2023-10-11T06:02:14.514Z,2.28
2023-10-11T06:04:41.449Z,2.53
2023-10-11T06:07:10.870Z,1.98
2023-10-11T06:09:44.268Z,1.95
2023-10-11T06:12:23.777Z,2.33
2023-10-11T06:14:54.872Z,2.17
2023-10-11T06:17:34.256Z,2.28
2023-10-11T06:20:21.406Z,2.20
2023-10-11T06:22:47.944Z,2.47
2023-10-11T06:25:18.209Z,2.58
2023-10-11T06:27:59.800Z,2.33
2023-10-11T06:30:29.541Z,2.47
2023-10-11T06:32:58.091Z,1.90
2023-10-11T06:35:25.164Z,2.05
2023-10-11T06:37:56.539Z,2.05
2023-10-11T06:40:48.383Z,2.20
2023-10-11T06:43:15.629Z,2.92
2023-10-11T06:45:43.147Z,4.80
2023-10-11T06:48:11.737Z,4.18
2023-10-11T06:50:39.131Z,4.40
2023-10-11T06:53:08.427Z,4.75
2023-10-11T06:55:37.082Z,4.25
2023-10-11T06:58:10.867Z,4.18
2023-10-11T07:00:46.732Z,4.63
2023-10-11T07:03:28.475Z,4.93
2023-10-11T07:05:58.419Z,4.60
2023-10-11T07:08:36.047Z,4.85
2023-10-11T07:11:03.662Z,5.70
2023-10-11T07:13:44.477Z,5.13
2023-10-11T07:16:11.440Z,4.25
2023-10-11T07:18:44.827Z,4.13
2023-10-11T07:21:11.899Z,4.82
2023-10-11T07:23:52.641Z,5.07
2023-10-11T07:26:25.008Z,4.40
2023-10-11T07:28:53.145Z,4.63
2023-10-11T07:31:21.159Z,5.07
2023-10-11T07:33:51.616Z,4.60
2023-10-11T07:36:20.193Z,5.95
2023-10-11T07:38:48.163Z,8.95
2023-10-11T07:41:20.510Z,10.40
2023-10-11T07:43:47.008Z,7.60
2023-10-11T07:46:13.978Z,5.05
2023-10-11T07:48:41.052Z,4.63
2023-10-11T07:51:11.342Z,5.72
2023-10-11T07:53:45.502Z,4.43
2023-10-11T07:56:16.695Z,4.50
2023-10-11T07:58:47.055Z,4.90
2023-10-11T08:01:34.220Z,4.47
2023-10-11T08:04:00.809Z,5.20
2023-10-11T08:06:27.405Z,4.47
2023-10-11T08:09:04.830Z,4.50
2023-10-11T08:11:46.794Z,4.43
2023-10-11T08:14:16.534Z,4.18
2023-10-11T08:16:43.804Z,4.18
2023-10-11T08:19:12.490Z,4.78
2023-10-11T08:21:39.240Z,4.50
2023-10-11T08:24:07.804Z,4.28
2023-10-11T08:26:43.311Z,4.07
2023-10-11T08:29:26.728Z,3.88
2023-10-11T08:31:53.324Z,4.72
2023-10-11T08:34:19.830Z,4.10
2023-10-11T08:36:46.298Z,4.22
2023-10-11T08:39:14.579Z,3.85
2023-10-11T08:41:45.146Z,3.97
2023-10-11T08:44:21.608Z,4.22
2023-10-11T08:46:50.584Z,4.30
2023-10-11T08:49:18.804Z,4.10
2023-10-11T08:51:45.981Z,4.50
2023-10-11T08:54:16.170Z,4.28
2023-10-11T08:56:56.089Z,4.47
2023-10-11T08:59:26.392Z,4.47
2023-10-11T09:01:54.681Z,5.03
2023-10-11T09:04:27.772Z,4.40
2023-10-11T09:06:58.989Z,5.10
2023-10-11T09:09:42.468Z,4.32
2023-10-11T09:12:24.969Z,4.10
2023-10-11T09:15:02.080Z,5.07
2023-10-11T09:17:28.803Z,4.25
2023-10-11T09:19:59.556Z,4.43
2023-10-11T09:22:26.132Z,4.55
2023-10-11T09:25:25.394Z,4.60
2023-10-11T09:27:51.967Z,4.43
2023-10-11T09:30:24.405Z,5.05
2023-10-11T09:32:54.633Z,4.85
2023-10-11T09:35:27.660Z,4.85
2023-10-11T09:37:59.285Z,5.88
2023-10-11T09:40:29.389Z,4.88
2023-10-11T09:43:03.610Z,4.55
2023-10-11T09:45:44.094Z,4.55
2023-10-11T09:48:18.552Z,4.60
2023-10-11T09:50:45.409Z,5.07
2023-10-11T09:53:14.284Z,5.22
2023-10-11T09:56:16.496Z,4.57
2023-10-11T09:58:49.364Z,4.47
2023-10-11T10:01:27.788Z,4.60
2023-10-11T10:03:54.561Z,4.57
2023-10-11T10:06:23.248Z,4.88
2023-10-11T10:09:05.611Z,4.97
2023-10-11T10:12:10.862Z,4.53
2023-10-11T10:14:38.048Z,5.07
2023-10-11T10:17:11.819Z,5.60
2023-10-11T10:19:44.943Z,4.93
2023-10-11T10:22:16.281Z,4.32
2023-10-11T10:24:45.212Z,4.40
2023-10-11T10:27:39.159Z,4.68
2023-10-11T10:30:09.389Z,4.15
2023-10-11T10:32:36.663Z,4.32
2023-10-11T10:35:21.256Z,4.00
2023-10-11T10:37:47.835Z,3.93
2023-10-11T10:40:28.579Z,4.47
2023-10-11T10:43:07.319Z,4.45
2023-10-11T10:45:37.742Z,4.35
2023-10-11T10:48:25.180Z,4.07
2023-10-11T10:50:56.243Z,4.35
2023-10-11T10:53:25.719Z,4.15
2023-10-11T10:55:52.213Z,4.35
2023-10-11T10:58:20.191Z,4.50
2023-10-11T11:00:53.145Z,3.90
2023-10-11T11:03:26.500Z,4.28
2023-10-11T11:05:57.854Z,4.05
2023-10-11T11:08:32.676Z,5.03
2023-10-11T11:11:20.732Z,4.50
2023-10-11T11:13:48.782Z,4.80
2023-10-11T11:16:17.590Z,4.40
2023-10-11T11:18:45.084Z,4.70
2023-10-11T11:21:23.254Z,5.45
2023-10-11T11:23:50.830Z,4.93
2023-10-11T11:28:54.338Z,4.70
2023-10-11T11:31:23.803Z,4.60
2023-10-11T11:34:06.501Z,5.45
2023-10-11T11:36:35.958Z,4.53
2023-10-11T11:39:18.689Z,4.97
2023-10-11T11:41:48.860Z,4.97
2023-10-11T11:44:23.382Z,4.55
2023-10-11T11:46:54.212Z,4.68
2023-10-11T11:49:23.695Z,4.18
2023-10-11T11:51:54.444Z,4.72
2023-10-11T11:54:22.262Z,4.30
2023-10-11T11:56:49.300Z,5.07
2023-10-11T11:59:19.259Z,4.57
2023-10-11T12:01:50.497Z,4.60
2023-10-11T12:04:22.243Z,4.53
2023-10-11T12:06:49.389Z,4.35
2023-10-11T12:09:21.974Z,4.35
2023-10-11T12:11:50.808Z,4.93
2023-10-11T12:14:17.856Z,4.53
2023-10-11T12:16:44.593Z,4.78
2023-10-11T12:19:13.051Z,5.20
2023-10-11T12:21:40.416Z,4.78
2023-10-11T12:24:28.465Z,4.00
2023-10-11T12:26:59.370Z,5.07
2023-10-11T12:29:27.742Z,4.15
2023-10-11T12:31:55.373Z,4.05
2023-10-11T12:34:28.465Z,4.43
2023-10-11T12:36:55.272Z,4.13
2023-10-11T12:39:22.583Z,4.88
2023-10-11T12:41:52.539Z,5.10
2023-10-11T12:44:23.653Z,5.55
2023-10-11T12:46:52.377Z,4.72
2023-10-11T12:49:19.927Z,4.32
2023-10-11T12:51:47.849Z,4.75
2023-10-11T12:54:21.095Z,4.60
2023-10-11T12:56:48.592Z,4.55
2023-10-11T12:59:15.068Z,4.00
2023-10-11T13:01:43.623Z,3.88
2023-10-11T13:04:19.962Z,4.03
2023-10-11T13:06:52.735Z,4.30
2023-10-11T13:09:28.603Z,4.32
2023-10-11T13:11:57.659Z,4.20
2023-10-11T13:14:25.468Z,5.07
2023-10-11T13:16:55.221Z,3.95
2023-10-11T13:19:25.537Z,4.05
2023-10-11T13:21:56.737Z,4.00
2023-10-11T13:24:25.996Z,4.18
2023-10-11T13:26:53.418Z,4.18
2023-10-11T13:29:20.396Z,4.38
2023-10-11T13:31:58.177Z,4.07
2023-10-11T13:34:34.711Z,4.45
2023-10-11T13:37:02.270Z,4.60
2023-10-11T13:39:29.815Z,3.90
2023-10-11T13:42:04.807Z,4.70
2023-10-11T13:44:36.601Z,4.22
2023-10-11T13:47:05.041Z,4.50
2023-10-11T13:49:34.542Z,4.00
2023-10-11T13:52:04.036Z,4.18
2023-10-11T13:54:33.301Z,4.05
2023-10-11T13:57:01.278Z,3.70
2023-10-11T13:59:37.743Z,4.28
2023-10-11T14:02:25.243Z,4.15
2023-10-11T14:04:58.156Z,4.25
2023-10-11T14:07:34.342Z,4.13
2023-10-11T14:10:02.362Z,4.95
2023-10-11T14:12:30.598Z,4.13
2023-10-11T14:14:57.546Z,4.38
2023-10-11T14:17:26.219Z,4.38
2023-10-11T14:19:54.799Z,5.03
2023-10-11T14:22:23.091Z,4.63
2023-10-11T14:24:50.671Z,4.85
2023-10-11T14:27:20.257Z,4.65
2023-10-11T14:29:47.730Z,4.63
2023-10-11T14:32:18.425Z,5.40
2023-10-11T14:34:46.915Z,6.43
2023-10-11T14:37:15.046Z,6.32
2023-10-11T14:39:48.630Z,9.48
2023-10-11T14:42:16.449Z,12.77
2023-10-11T14:44:43.609Z,16.73
2023-10-11T14:47:15.034Z,15.75
2023-10-11T14:49:42.016Z,18.45
2023-10-11T14:52:09.439Z,18.38
2023-10-11T14:54:40.549Z,20.63
2023-10-11T14:57:08.604Z,20.17
2023-10-11T14:59:38.823Z,20.45
2023-10-11T15:02:05.968Z,24.13
2023-10-11T15:04:36.164Z,24.52
2023-10-11T15:07:02.671Z,21.10
2023-10-11T15:09:34.364Z,24.48
2023-10-11T15:12:01.249Z,23.25
2023-10-11T15:14:27.879Z,27.02
2023-10-11T15:16:59.339Z,26.23
2023-10-11T15:19:26.461Z,26.17
2023-10-11T15:21:53.708Z,21.63
2023-10-11T15:24:24.453Z,21.08
2023-10-11T15:26:51.996Z,21.00
2023-10-11T15:29:18.610Z,19.42
2023-10-11T15:31:45.143Z,18.27
2023-10-11T15:34:13.944Z,17.25
2023-10-11T15:36:43.661Z,15.05
2023-10-11T15:39:11.954Z,12.73
2023-10-11T15:41:39.019Z,11.60
2023-10-11T15:44:05.684Z,9.15
2023-10-11T15:46:32.293Z,8.18
2023-10-11T15:49:01.498Z,7.22
2023-10-11T15:51:28.271Z,7.03
2023-10-11T15:53:54.890Z,6.07
2023-10-11T15:56:21.421Z,5.43
2023-10-11T15:58:48.166Z,6.45
2023-10-11T16:01:15.606Z,6.00
2023-10-11T16:03:45.606Z,5.65
2023-10-11T16:06:13.336Z,5.43
2023-10-11T16:08:40.470Z,5.72
2023-10-11T16:11:11.167Z,5.47
2023-10-11T16:13:38.563Z,5.55
2023-10-11T16:16:07.038Z,5.50
2023-10-11T16:18:34.827Z,5.38
2023-10-11T16:21:04.349Z,5.30
2023-10-11T16:23:33.512Z,5.05
2023-10-11T16:26:02.076Z,4.88
2023-10-11T16:28:30.286Z,4.63
2023-10-11T16:30:58.921Z,5.22
2023-10-11T16:33:30.585Z,5.20
2023-10-11T16:35:59.843Z,4.93
2023-10-11T16:38:26.875Z,5.75
2023-10-11T16:40:54.822Z,5.25
2023-10-11T16:43:22.240Z,4.70
2023-10-11T16:45:49.222Z,5.30
2023-10-11T16:48:15.878Z,5.55
2023-10-11T16:50:45.031Z,5.78
2023-10-11T16:53:13.656Z,6.20
2023-10-11T16:55:42.075Z,4.85
2023-10-11T16:58:08.711Z,5.85
2023-10-11T17:00:35.296Z,5.80
2023-10-11T17:03:03.762Z,5.72
2023-10-11T17:05:35.402Z,9.45
2023-10-11T17:08:02.837Z,16.73
2023-10-11T17:10:29.393Z,14.05
2023-10-11T17:12:56.346Z,10.73
2023-10-11T17:15:26.310Z,8.48
2023-10-11T17:17:55.031Z,8.02
2023-10-11T17:20:25.977Z,7.80
2023-10-11T17:22:53.332Z,6.47
2023-10-11T17:25:20.912Z,7.00
2023-10-11T17:27:51.609Z,6.88
2023-10-11T17:30:19.643Z,7.97
2023-10-11T17:32:47.316Z,8.10
2023-10-11T17:35:16.541Z,6.72
2023-10-11T17:37:49.257Z,5.97
2023-10-11T17:40:19.504Z,6.20
2023-10-11T17:42:49.288Z,6.28
2023-10-11T17:45:18.426Z,6.72
2023-10-11T17:47:45.224Z,7.25
2023-10-11T17:50:14.414Z,7.25
2023-10-11T17:52:42.653Z,6.47
2023-10-11T17:55:10.201Z,6.43
2023-10-11T17:57:37.877Z,5.95
2023-10-11T18:00:08.465Z,5.63
2023-10-11T18:02:37.361Z,5.22
2023-10-11T18:05:07.269Z,6.93
2023-10-11T18:07:37.233Z,5.78
2023-10-11T18:10:04.585Z,6.30
2023-10-11T18:12:35.127Z,6.00
2023-10-11T18:15:06.268Z,5.68
2023-10-11T18:17:40.857Z,6.32
2023-10-11T18:20:12.612Z,6.75
2023-10-11T18:22:42.658Z,6.13
2023-10-11T18:25:11.066Z,5.55
2023-10-11T18:27:38.958Z,5.45
2023-10-11T18:30:06.414Z,6.18
2023-10-11T18:32:37.043Z,5.80
2023-10-11T18:35:05.453Z,6.28
2023-10-11T18:37:32.062Z,5.63
2023-10-11T18:39:59.803Z,5.68
2023-10-11T18:42:27.462Z,5.72
2023-10-11T18:44:54.768Z,5.32
2023-10-11T18:47:23.112Z,5.20
2023-10-11T18:49:50.084Z,4.93
2023-10-11T18:52:17.332Z,5.47
2023-10-11T18:54:43.928Z,4.90
2023-10-11T18:57:10.498Z,5.88
2023-10-11T18:59:37.018Z,5.63
2023-10-11T19:02:03.603Z,5.60
2023-10-11T19:04:30.077Z,5.22
2023-10-11T19:06:56.683Z,5.43
2023-10-11T19:09:24.355Z,5.18
2023-10-11T19:11:50.961Z,5.80
2023-10-11T19:14:17.677Z,5.20
2023-10-11T19:16:44.591Z,4.90
2023-10-11T19:19:13.187Z,4.72
2023-10-11T19:21:39.768Z,5.85
2023-10-11T19:24:09.885Z,5.20
2023-10-11T19:26:40.192Z,5.03
2023-10-11T19:29:06.703Z,5.53
2023-10-11T19:31:33.846Z,6.00
2023-10-11T19:34:00.452Z,5.28
2023-10-11T19:36:27.038Z,5.65
2023-10-11T19:38:53.652Z,5.38
2023-10-11T19:41:20.235Z,5.00
2023-10-11T19:43:46.729Z,5.78
2023-10-11T19:46:13.738Z,6.07
2023-10-11T19:48:42.587Z,4.70
2023-10-11T19:51:11.031Z,5.00
2023-10-11T19:53:38.098Z,4.55
2023-10-11T19:56:10.777Z,4.85
2023-10-11T19:58:37.705Z,5.13
2023-10-11T20:01:08.612Z,4.68
2023-10-11T20:03:38.367Z,4.97
2023-10-11T20:06:10.173Z,4.47
2023-10-11T20:08:40.838Z,4.30
2023-10-11T20:11:11.495Z,5.25
2023-10-11T20:13:39.430Z,4.93
2023-10-11T20:16:12.772Z,5.35
2023-10-11T20:18:42.545Z,5.65
2023-10-11T20:21:09.502Z,4.47
2023-10-11T20:23:36.548Z,5.20
2023-10-11T20:26:09.766Z,5.35
2023-10-11T20:28:38.693Z,4.80
2023-10-11T20:31:06.398Z,5.00
2023-10-11T20:33:35.016Z,4.88
2023-10-11T20:36:01.763Z,5.10
2023-10-11T20:38:29.433Z,5.15
2023-10-11T20:40:55.988Z,4.93
2023-10-11T20:43:24.080Z,4.97
2023-10-11T20:45:52.113Z,5.03
2023-10-11T20:48:22.641Z,4.72
2023-10-11T20:50:53.538Z,5.32
2023-10-11T20:53:20.229Z,5.38
2023-10-11T20:55:48.974Z,5.45
2023-10-11T20:58:16.232Z,4.90
2023-10-11T21:00:45.895Z,5.40
2023-10-11T21:03:14.608Z,4.32
2023-10-11T21:05:43.167Z,5.28
2023-10-11T21:08:13.409Z,4.95
2023-10-11T21:10:41.307Z,5.68
2023-10-11T21:13:09.678Z,5.03
2023-10-11T21:15:40.624Z,4.72
2023-10-11T21:18:11.491Z,4.32
2023-10-11T21:20:49.642Z,4.25
2023-10-11T21:23:18.735Z,4.65
2023-10-11T21:26:12.611Z,4.30
2023-10-11T21:28:40.372Z,4.68
2023-10-11T21:31:15.636Z,4.43
2023-10-11T21:33:43.038Z,4.65
2023-10-11T21:36:11.964Z,4.65
2023-10-11T21:38:38.544Z,4.57
2023-10-11T21:41:05.043Z,4.63
2023-10-11T21:43:32.412Z,4.60
2023-10-11T21:46:04.189Z,4.32
2023-10-11T21:48:30.701Z,4.72
2023-10-11T21:50:57.181Z,4.78
2023-10-11T21:53:23.893Z,4.10
2023-10-11T21:55:52.946Z,4.18
2023-10-11T21:58:19.435Z,5.63
2023-10-11T22:01:05.793Z,4.10
2023-10-11T22:03:33.124Z,4.10
2023-10-11T22:06:05.903Z,4.32
2023-10-11T22:08:36.340Z,4.53
2023-10-11T22:11:05.244Z,5.00
2023-10-11T22:13:33.483Z,3.88
2023-10-11T22:16:00.475Z,4.28
2023-10-11T22:18:30.699Z,3.78
2023-10-11T22:21:00.725Z,4.15
2023-10-11T22:23:32.199Z,4.43
2023-10-11T22:25:58.945Z,4.65
2023-10-11T22:28:26.028Z,4.72
2023-10-11T22:30:53.693Z,4.05
2023-10-11T22:33:23.655Z,4.55
2023-10-11T22:35:52.477Z,3.95
2023-10-11T22:38:22.021Z,4.13
2023-10-11T22:40:52.040Z,3.83
2023-10-11T22:43:29.850Z,4.25
2023-10-11T22:45:57.955Z,4.65
2023-10-11T22:48:25.424Z,4.10
2023-10-11T22:50:53.174Z,3.85
2023-10-11T22:53:23.925Z,4.22
2023-10-11T22:55:51.217Z,3.45
2023-10-11T22:58:19.742Z,3.60
2023-10-11T23:00:47.134Z,3.38
2023-10-11T23:03:13.834Z,4.28
2023-10-11T23:05:41.845Z,3.65
2023-10-11T23:08:10.271Z,3.78
2023-10-11T23:10:43.954Z,3.75
2023-10-11T23:13:10.610Z,3.58
2023-10-11T23:15:51.170Z,3.58
2023-10-11T23:18:20.853Z,3.83
2023-10-11T23:20:58.361Z,3.63
2023-10-11T23:23:56.036Z,3.53
2023-10-11T23:26:26.296Z,3.80
2023-10-11T23:28:54.656Z,3.45
2023-10-11T23:31:25.790Z,3.65
2023-10-11T23:33:52.713Z,3.70
2023-10-11T23:36:24.227Z,3.72
2023-10-11T23:39:02.875Z,3.75
2023-10-11T23:41:38.571Z,3.40
2023-10-11T23:44:21.674Z,3.65
2023-10-11T23:47:00.038Z,3.35
2023-10-11T23:49:41.781Z,3.30
2023-10-11T23:52:21.398Z,3.50
2023-10-11T23:54:50.315Z,3.70
2023-10-11T23:57:23.805Z,3.65
2023-10-11T23:59:50.841Z,3.63
